Time;durP1;ratioP1;P1;durP2;ratioP2;P2;SDS_P1;SDS_P2;PMS_P1;PMS_P2;Temp;Humidity;BMP_temperature;BMP_pressure;BME280_temperature;BME280_humidity;BME280_pressure;Samples;Min_cycle;Max_cycle;Signal;HPM_P1;HPM_P2
2021/08/13 00:01:27;;;;;;;4.03;2.65;;;27.70;91.30;;;;;;4961736;28;20473;-75
2021/08/13 00:03:56;;;;;;;5.03;3.13;;;27.70;91.20;;;;;;4963333;28;20382;-74
2021/08/13 00:06:24;;;;;;;4.97;3.20;;;27.70;90.90;;;;;;4967507;28;20042;-75
2021/08/13 00:08:52;;;;;;;6.13;2.92;;;27.60;91.00;;;;;;4952379;28;20343;-74
2021/08/13 00:11:20;;;;;;;4.75;2.90;;;27.50;90.80;;;;;;4971078;28;20065;-74
2021/08/13 00:13:50;;;;;;;5.07;3.00;;;27.40;91.00;;;;;;4975358;28;20127;-74
2021/08/13 00:16:19;;;;;;;5.72;3.03;;;27.40;90.80;;;;;;4960914;28;20142;-74
2021/08/13 00:18:47;;;;;;;6.20;2.63;;;27.30;91.00;;;;;;4976423;28;20456;-75
2021/08/13 00:21:15;;;;;;;5.80;2.83;;;27.40;90.80;;;;;;4971095;28;20386;-74
2021/08/13 00:23:43;;;;;;;6.47;2.92;;;27.40;90.70;;;;;;4974747;28;20046;-75
2021/08/13 00:26:12;;;;;;;4.68;2.90;;;27.40;90.70;;;;;;4979225;28;21014;-76
2021/08/13 00:28:40;;;;;;;4.22;2.80;;;27.40;91.60;;;;;;4967919;28;20047;-76
2021/08/13 00:31:11;;;;;;;4.72;2.97;;;27.40;91.70;;;;;;4974364;28;20039;-76
2021/08/13 00:33:40;;;;;;;3.65;2.90;;;27.40;91.10;;;;;;4977296;28;20121;-76
2021/08/13 00:36:09;;;;;;;5.60;3.05;;;27.20;91.90;;;;;;4976421;28;20420;-76
2021/08/13 00:38:38;;;;;;;4.75;2.90;;;27.20;91.90;;;;;;4980486;28;20055;-76
2021/08/13 00:41:08;;;;;;;5.60;2.90;;;27.30;91.70;;;;;;4945779;28;20500;-76
2021/08/13 00:43:38;;;;;;;3.70;2.63;;;27.30;91.60;;;;;;4974016;28;20058;-76
2021/08/13 00:46:12;;;;;;;5.03;3.03;;;27.30;91.70;;;;;;4958804;28;20143;-76
2021/08/13 00:49:11;;;;;;;4.30;2.60;;;27.30;91.80;;;;;;4948095;28;20055;-76
2021/08/13 00:51:52;;;;;;;4.88;2.95;;;27.30;92.00;;;;;;4931957;28;20659;-77
2021/08/13 00:54:25;;;;;;;5.75;2.60;;;27.30;91.60;;;;;;4943987;28;20180;-76
2021/08/13 00:56:54;;;;;;;4.85;3.00;;;27.30;91.90;;;;;;4937176;28;20063;-76
2021/08/13 00:59:51;;;;;;;5.78;2.60;;;27.30;92.00;;;;;;4890881;28;20048;-76
2021/08/13 01:02:26;;;;;;;4.07;2.90;;;27.10;92.60;;;;;;4938717;28;20098;-76
2021/08/13 01:05:06;;;;;;;5.03;2.95;;;26.90;93.20;;;;;;4938339;28;20043;-76
2021/08/13 01:07:36;;;;;;;15.13;3.60;;;26.80;93.70;;;;;;4924761;28;20555;-76
2021/08/13 01:10:07;;;;;;;5.35;3.30;;;26.60;94.40;;;;;;4931770;28;20043;-76
2021/08/13 01:12:53;;;;;;;5.15;3.15;;;26.70;94.40;;;;;;4929904;28;20050;-76
2021/08/13 01:15:27;;;;;;;5.97;2.95;;;26.60;94.40;;;;;;4928649;28;20070;-76
2021/08/13 01:18:01;;;;;;;6.63;2.85;;;26.70;94.40;;;;;;4942483;28;20051;-76
2021/08/13 01:21:04;;;;;;;5.22;2.97;;;26.40;94.80;;;;;;4935698;28;20039;-76
2021/08/13 01:23:41;;;;;;;4.80;3.15;;;26.20;95.50;;;;;;4933772;28;20401;-76
2021/08/13 01:26:13;;;;;;;6.78;2.65;;;26.10;95.90;;;;;;4966518;28;20524;-76
2021/08/13 01:28:52;;;;;;;3.83;2.38;;;26.00;96.50;;;;;;4960217;28;20153;-76
2021/08/13 01:31:24;;;;;;;4.10;3.15;;;26.00;96.50;;;;;;4964812;28;20051;-76
2021/08/13 01:34:02;;;;;;;5.68;2.80;;;26.20;96.00;;;;;;4962798;28;20058;-76
2021/08/13 01:36:31;;;;;;;5.70;3.03;;;26.20;95.60;;;;;;4978584;28;20050;-76
2021/08/13 01:39:04;;;;;;;3.70;2.50;;;26.20;95.50;;;;;;4969619;28;20413;-76
2021/08/13 01:41:36;;;;;;;5.18;2.70;;;26.20;95.30;;;;;;4984057;28;20590;-76
2021/08/13 01:44:32;;;;;;;7.00;3.72;;;26.20;95.50;;;;;;4951057;28;20601;-76
2021/08/13 01:47:02;;;;;;;7.72;3.20;;;26.20;95.40;;;;;;4972136;28;20670;-76
2021/08/13 01:49:34;;;;;;;5.78;3.00;;;26.20;95.40;;;;;;4971018;28;20042;-76
2021/08/13 01:52:05;;;;;;;5.32;3.35;;;26.30;95.50;;;;;;4961685;28;20654;-77
2021/08/13 01:54:36;;;;;;;5.57;3.17;;;26.30;95.50;;;;;;4969011;28;20503;-76
2021/08/13 01:57:05;;;;;;;5.57;2.90;;;26.30;95.80;;;;;;4967963;28;20233;-77
2021/08/13 01:59:36;;;;;;;4.60;3.35;;;26.20;96.20;;;;;;4968201;28;20200;-76
2021/08/13 02:02:05;;;;;;;8.32;2.90;;;26.20;96.20;;;;;;4975775;28;20056;-76
2021/08/13 02:04:42;;;;;;;6.05;3.00;;;26.40;95.60;;;;;;4966254;28;20479;-76
2021/08/13 02:07:13;;;;;;;6.38;3.30;;;26.30;95.50;;;;;;4964513;28;20086;-76
2021/08/13 02:09:43;;;;;;;3.15;2.75;;;26.00;96.70;;;;;;4972591;28;20132;-76
2021/08/13 02:12:14;;;;;;;4.78;2.67;;;26.00;96.70;;;;;;4962351;28;20065;-76
2021/08/13 02:14:43;;;;;;;3.72;3.33;;;26.00;96.70;;;;;;4963193;28;20215;-76
2021/08/13 02:17:16;;;;;;;5.38;2.97;;;26.10;96.70;;;;;;4962969;28;20038;-76
2021/08/13 02:19:55;;;;;;;5.38;3.35;;;26.10;96.70;;;;;;4964172;28;20405;-75
2021/08/13 02:22:26;;;;;;;4.53;3.42;;;26.20;96.70;;;;;;4955921;28;20145;-76
2021/08/13 02:24:59;;;;;;;5.78;3.10;;;26.20;96.70;;;;;;4971085;28;20120;-75
2021/08/13 02:27:29;;;;;;;5.15;2.78;;;26.10;96.70;;;;;;4954612;28;20046;-76
2021/08/13 02:29:58;;;;;;;5.55;3.38;;;26.20;96.70;;;;;;4960027;28;20047;-75
2021/08/13 02:32:32;;;;;;;7.38;3.35;;;26.20;96.70;;;;;;4960106;28;20046;-75
2021/08/13 02:35:07;;;;;;;4.70;3.40;;;26.30;96.70;;;;;;4990799;28;20047;-76
2021/08/13 02:37:41;;;;;;;4.07;2.95;;;26.20;96.70;;;;;;4949858;28;20061;-75
2021/08/13 02:40:16;;;;;;;4.03;3.42;;;26.20;96.70;;;;;;4967855;28;20270;-75
2021/08/13 02:42:50;;;;;;;5.63;3.28;;;26.20;96.70;;;;;;4969190;28;20519;-75
2021/08/13 02:45:23;;;;;;;6.63;2.97;;;26.10;96.70;;;;;;4972249;28;20038;-75
2021/08/13 02:48:00;;;;;;;5.47;3.38;;;26.10;96.70;;;;;;4974264;28;20452;-76
2021/08/13 02:50:49;;;;;;;4.03;3.17;;;26.00;96.70;;;;;;4957831;28;20528;-75
2021/08/13 02:53:29;;;;;;;4.70;3.28;;;25.90;96.70;;;;;;4981073;28;23969;-74
2021/08/13 02:56:08;;;;;;;4.93;3.47;;;25.80;96.70;;;;;;4957248;28;20046;-77
2021/08/13 02:58:47;;;;;;;5.40;3.53;;;25.80;96.70;;;;;;4984619;28;20042;-75
2021/08/13 03:01:21;;;;;;;5.25;3.00;;;25.80;96.70;;;;;;4966121;28;20037;-75
2021/08/13 03:03:54;;;;;;;5.00;3.08;;;25.90;96.70;;;;;;4978757;28;20042;-75
2021/08/13 03:06:32;;;;;;;3.80;2.88;;;25.70;96.70;;;;;;4962911;28;20042;-75
2021/08/13 03:09:05;;;;;;;4.55;3.17;;;25.60;96.70;;;;;;4975929;28;20050;-75
2021/08/13 03:11:38;;;;;;;5.63;3.33;;;25.60;96.70;;;;;;4966305;28;20053;-75
2021/08/13 03:14:12;;;;;;;5.47;3.70;;;25.70;96.70;;;;;;4964068;28;20051;-74
2021/08/13 03:16:45;;;;;;;6.28;3.25;;;25.60;96.70;;;;;;4969850;28;20427;-74
2021/08/13 03:19:17;;;;;;;5.45;3.47;;;25.60;96.70;;;;;;4992965;28;20073;-74
2021/08/13 03:21:53;;;;;;;5.43;3.10;;;25.60;96.70;;;;;;4981101;28;20491;-74
2021/08/13 03:24:24;;;;;;;3.70;2.80;;;25.50;96.70;;;;;;4963017;28;20540;-74
2021/08/13 03:26:55;;;;;;;5.03;3.50;;;25.50;96.70;;;;;;4971779;28;20049;-75
2021/08/13 03:29:32;;;;;;;7.55;3.13;;;25.60;96.70;;;;;;4965461;28;20047;-75
2021/08/13 03:32:13;;;;;;;3.53;3.20;;;25.70;96.70;;;;;;4980768;28;20034;-74
2021/08/13 03:34:45;;;;;;;4.68;3.47;;;25.70;96.70;;;;;;4952066;28;20088;-74
2021/08/13 03:37:22;;;;;;;7.50;4.03;;;25.60;96.70;;;;;;4970578;28;20055;-75
2021/08/13 03:39:57;;;;;;;4.72;3.10;;;25.30;96.70;;;;;;4967567;28;20572;-75
2021/08/13 03:42:29;;;;;;;6.22;3.63;;;25.20;96.70;;;;;;4974449;28;20046;-74
2021/08/13 03:45:00;;;;;;;4.40;3.00;;;25.10;96.70;;;;;;4968219;28;20510;-75
2021/08/13 03:47:31;;;;;;;5.13;3.45;;;25.10;96.70;;;;;;4966622;28;20042;-74
2021/08/13 03:50:01;;;;;;;4.53;2.97;;;25.10;96.70;;;;;;4959758;28;20050;-74
2021/08/13 03:52:31;;;;;;;4.53;3.30;;;25.20;96.70;;;;;;4967625;28;20148;-76
2021/08/13 03:55:00;;;;;;;5.35;3.20;;;25.30;96.70;;;;;;4972837;28;20054;-74
2021/08/13 03:57:34;;;;;;;6.10;3.17;;;25.30;96.70;;;;;;4976982;28;20141;-75
2021/08/13 04:00:04;;;;;;;8.32;3.72;;;25.20;96.70;;;;;;4962073;28;20060;-74
2021/08/13 04:02:44;;;;;;;4.88;3.40;;;25.20;96.70;;;;;;4970422;28;20517;-75
2021/08/13 04:05:19;;;;;;;4.15;3.17;;;24.90;96.70;;;;;;4988595;28;20050;-75
2021/08/13 04:07:52;;;;;;;4.82;3.15;;;24.70;96.70;;;;;;4974835;28;20571;-75
2021/08/13 04:10:21;;;;;;;7.70;3.38;;;24.60;96.70;;;;;;4981232;28;20034;-75
2021/08/13 04:12:50;;;;;;;4.50;3.53;;;24.60;96.70;;;;;;4957365;28;20399;-75
2021/08/13 04:15:24;;;;;;;4.15;3.03;;;24.60;96.70;;;;;;4955584;28;20431;-75
2021/08/13 04:17:54;;;;;;;4.38;3.35;;;24.80;96.70;;;;;;4974834;28;20058;-75
2021/08/13 04:20:28;;;;;;;4.07;2.78;;;24.90;96.70;;;;;;4962255;28;20584;-75
2021/08/13 04:23:02;;;;;;;4.85;2.88;;;24.90;96.70;;;;;;4960647;28;20137;-75
2021/08/13 04:25:31;;;;;;;5.72;3.33;;;24.90;96.70;;;;;;4977647;28;20053;-75
2021/08/13 04:28:01;;;;;;;5.43;3.17;;;24.90;96.70;;;;;;4978014;28;20285;-75
2021/08/13 04:30:31;;;;;;;5.65;3.05;;;25.00;96.70;;;;;;4977097;28;20042;-75
2021/08/13 04:33:20;;;;;;;3.53;3.13;;;24.90;96.70;;;;;;4993576;28;20125;-75
2021/08/13 04:35:55;;;;;;;4.03;3.03;;;25.10;96.70;;;;;;4976924;28;20408;-75
2021/08/13 04:38:26;;;;;;;4.00;3.25;;;25.20;96.70;;;;;;4970714;28;20061;-75
2021/08/13 04:40:54;;;;;;;6.38;3.67;;;25.10;96.70;;;;;;4965200;28;20062;-75
2021/08/13 04:43:24;;;;;;;3.65;3.15;;;25.00;96.70;;;;;;4956165;28;20168;-75
2021/08/13 04:45:54;;;;;;;5.10;3.40;;;25.20;96.70;;;;;;4957800;28;20065;-76
2021/08/13 04:48:23;;;;;;;7.07;3.40;;;25.00;96.70;;;;;;4983191;28;20060;-75
2021/08/13 04:50:53;;;;;;;6.07;3.60;;;25.20;96.70;;;;;;4982314;28;20047;-75
2021/08/13 04:53:22;;;;;;;5.47;3.10;;;25.40;96.70;;;;;;4999565;28;20148;-75
2021/08/13 04:55:52;;;;;;;7.43;3.15;;;25.40;96.70;;;;;;4967683;28;20053;-75
2021/08/13 04:58:21;;;;;;;7.15;3.08;;;25.50;96.70;;;;;;4985644;28;20050;-75
2021/08/13 05:00:52;;;;;;;5.05;3.17;;;25.40;96.70;;;;;;4977044;28;20046;-75
2021/08/13 05:03:20;;;;;;;5.82;3.10;;;25.20;96.70;;;;;;4989345;28;20195;-75
2021/08/13 05:05:52;;;;;;;7.13;3.40;;;25.00;96.70;;;;;;4963113;28;20054;-75
2021/08/13 05:08:21;;;;;;;6.40;3.45;;;24.90;96.70;;;;;;4981461;28;20045;-75
2021/08/13 05:10:52;;;;;;;3.50;3.10;;;25.00;96.70;;;;;;4970852;28;20078;-75
2021/08/13 05:13:21;;;;;;;4.82;3.30;;;25.10;96.70;;;;;;4965400;28;20470;-76
2021/08/13 05:15:49;;;;;;;6.00;3.35;;;25.20;96.70;;;;;;4966918;28;20050;-75
2021/08/13 05:18:19;;;;;;;8.45;3.47;;;25.20;96.70;;;;;;4977550;28;20134;-75
2021/08/13 05:20:48;;;;;;;5.32;3.30;;;25.10;96.70;;;;;;4952803;28;20387;-75
2021/08/13 05:23:17;;;;;;;5.85;3.10;;;25.20;96.70;;;;;;4973155;28;20069;-77
2021/08/13 05:25:46;;;;;;;4.50;3.22;;;25.30;96.70;;;;;;4961241;28;20910;-76
2021/08/13 05:28:16;;;;;;;5.80;3.50;;;25.30;96.70;;;;;;4971393;28;20046;-78
2021/08/13 05:30:45;;;;;;;7.40;3.38;;;25.30;96.70;;;;;;4967822;28;20468;-77
2021/08/13 05:33:13;;;;;;;5.90;3.10;;;25.30;96.70;;;;;;4977545;28;20039;-77
2021/08/13 05:35:43;;;;;;;5.90;3.30;;;25.30;96.70;;;;;;4963171;28;20387;-77
2021/08/13 05:38:11;;;;;;;8.43;3.40;;;25.30;96.70;;;;;;4968449;28;20055;-76
2021/08/13 05:40:42;;;;;;;5.30;3.50;;;25.30;96.70;;;;;;4958640;28;20046;-77
2021/08/13 05:43:13;;;;;;;5.68;3.15;;;25.30;96.70;;;;;;4965853;28;20071;-77
2021/08/13 05:45:44;;;;;;;7.22;3.20;;;25.30;96.70;;;;;;4965057;28;20050;-77
2021/08/13 05:48:12;;;;;;;5.85;3.08;;;25.20;96.70;;;;;;4954536;28;20144;-77
2021/08/13 05:50:42;;;;;;;7.65;2.80;;;25.30;96.70;;;;;;4959027;28;20049;-77
2021/08/13 05:53:14;;;;;;;5.55;2.85;;;25.50;96.70;;;;;;4953345;28;20053;-77
2021/08/13 05:55:42;;;;;;;12.02;3.42;;;25.50;96.70;;;;;;4969312;28;20042;-77
2021/08/13 05:58:12;;;;;;;5.35;2.90;;;25.60;96.70;;;;;;4995665;28;20134;-77
2021/08/13 06:00:41;;;;;;;5.10;3.50;;;25.50;96.70;;;;;;4973359;28;20035;-77
2021/08/13 06:03:11;;;;;;;4.70;3.33;;;25.70;96.70;;;;;;4958935;28;20046;-76
2021/08/13 06:05:49;;;;;;;5.82;2.95;;;25.70;96.70;;;;;;4960449;28;20128;-77
2021/08/13 06:08:20;;;;;;;6.70;3.30;;;25.70;96.70;;;;;;4958483;28;20490;-77
2021/08/13 06:10:49;;;;;;;7.70;3.35;;;25.80;96.70;;;;;;4964235;28;20165;-77
2021/08/13 06:13:18;;;;;;;3.40;2.97;;;25.90;96.50;;;;;;4962286;28;20407;-77
2021/08/13 06:15:49;;;;;;;6.82;3.00;;;26.00;96.20;;;;;;4968693;28;20104;-77
2021/08/13 06:18:19;;;;;;;5.63;3.22;;;25.90;96.00;;;;;;4973332;28;20047;-77
2021/08/13 06:20:47;;;;;;;4.47;2.88;;;25.80;96.10;;;;;;4976095;28;20061;-77
2021/08/13 06:23:27;;;;;;;6.72;3.13;;;25.80;96.10;;;;;;4971886;28;20459;-77
2021/08/13 06:25:57;;;;;;;3.90;2.70;;;26.00;96.20;;;;;;4978375;28;20034;-77
2021/08/13 06:28:27;;;;;;;5.60;3.13;;;25.90;96.70;;;;;;4966467;28;20547;-76
2021/08/13 06:30:55;;;;;;;7.10;3.53;;;26.00;96.60;;;;;;4976806;28;20501;-77
2021/08/13 06:33:25;;;;;;;10.77;3.10;;;26.00;96.50;;;;;;4948399;28;20038;-77
2021/08/13 06:35:53;;;;;;;9.57;3.50;;;26.10;96.50;;;;;;4968153;28;20061;-77
2021/08/13 06:38:22;;;;;;;9.88;3.78;;;26.10;96.10;;;;;;4952233;28;20051;-77
2021/08/13 06:40:52;;;;;;;11.93;3.55;;;26.20;96.30;;;;;;4963945;28;20050;-76
2021/08/13 06:43:25;;;;;;;6.72;3.20;;;26.30;96.20;;;;;;4975589;28;20050;-80
2021/08/13 06:45:58;;;;;;;12.90;3.53;;;26.30;96.30;;;;;;4970610;28;20056;-76
2021/08/13 06:48:33;;;;;;;10.70;3.38;;;26.40;96.20;;;;;;4970398;28;20097;-77
2021/08/13 06:51:07;;;;;;;9.38;4.20;;;26.40;95.80;;;;;;4971332;28;20054;-81
2021/08/13 06:53:37;;;;;;;14.63;4.03;;;26.60;95.80;;;;;;4966809;28;20070;-77
2021/08/13 06:56:05;;;;;;;10.98;3.85;;;26.70;95.10;;;;;;4981492;28;20047;-79
2021/08/13 06:58:34;;;;;;;5.43;3.17;;;26.80;94.70;;;;;;4985698;28;20049;-77
2021/08/13 07:01:04;;;;;;;8.85;4.20;;;26.80;95.20;;;;;;4959510;28;20047;-77
2021/08/13 07:03:34;;;;;;;11.73;3.55;;;27.00;95.10;;;;;;4992917;28;20048;-77
2021/08/13 07:06:03;;;;;;;9.07;3.83;;;27.00;95.20;;;;;;4977116;28;20046;-78
2021/08/13 07:08:31;;;;;;;14.85;4.38;;;27.10;94.90;;;;;;4968975;28;20042;-77
2021/08/13 07:11:04;;;;;;;9.00;3.35;;;27.20;94.90;;;;;;4978813;28;20440;-77
2021/08/13 07:13:32;;;;;;;12.43;4.30;;;27.30;94.80;;;;;;4972733;28;20042;-77
2021/08/13 07:16:01;;;;;;;8.48;3.17;;;27.30;95.50;;;;;;4992742;28;20126;-78
2021/08/13 07:18:35;;;;;;;7.28;3.22;;;27.40;94.90;;;;;;4979154;28;20141;-77
2021/08/13 07:21:04;;;;;;;6.43;3.08;;;27.50;94.50;;;;;;4984382;28;20041;-77
2021/08/13 07:23:33;;;;;;;7.80;3.17;;;27.60;94.50;;;;;;4989919;28;20035;-76
2021/08/13 07:26:03;;;;;;;6.50;3.33;;;27.60;94.60;;;;;;4972448;28;20050;-78
2021/08/13 07:28:31;;;;;;;8.10;3.58;;;27.60;94.60;;;;;;4969320;28;20039;-81
2021/08/13 07:31:00;;;;;;;6.65;2.95;;;27.70;94.50;;;;;;4980741;28;20452;-81
2021/08/13 07:33:39;;;;;;;8.02;3.58;;;27.80;94.30;;;;;;4977049;28;20568;-81
2021/08/13 07:36:08;;;;;;;10.27;4.20;;;27.80;93.90;;;;;;4990148;28;20069;-80
2021/08/13 07:38:40;;;;;;;7.53;3.95;;;27.90;93.00;;;;;;4961999;28;20505;-79
2021/08/13 07:41:10;;;;;;;6.40;3.20;;;27.90;93.50;;;;;;4983899;28;20144;-80
2021/08/13 07:43:40;;;;;;;8.55;3.67;;;28.00;93.40;;;;;;4970688;28;20535;-79
2021/08/13 07:46:10;;;;;;;7.63;4.30;;;28.20;92.50;;;;;;4989469;28;20058;-80
2021/08/13 07:48:40;;;;;;;9.80;3.30;;;28.30;93.00;;;;;;4988781;28;20066;-78
2021/08/13 07:51:10;;;;;;;8.40;4.50;;;28.30;92.50;;;;;;4970071;28;20554;-79
2021/08/13 07:53:38;;;;;;;11.30;3.67;;;28.40;92.90;;;;;;4987707;28;20030;-78
2021/08/13 07:56:09;;;;;;;5.38;3.30;;;28.40;92.50;;;;;;4989270;28;20039;-79
2021/08/13 07:58:38;;;;;;;5.18;3.33;;;28.50;92.60;;;;;;4972785;28;20054;-78
2021/08/13 08:01:08;;;;;;;8.18;3.35;;;28.60;92.60;;;;;;4987475;28;20408;-77
2021/08/13 08:03:36;;;;;;;4.45;3.42;;;28.70;91.20;;;;;;4985942;28;20042;-77
2021/08/13 08:06:06;;;;;;;5.25;3.65;;;28.80;91.20;;;;;;4991174;28;20120;-79
2021/08/13 08:08:35;;;;;;;7.75;3.70;;;28.90;90.30;;;;;;4989474;28;20646;-79
2021/08/13 08:11:03;;;;;;;4.65;3.30;;;28.90;91.20;;;;;;4991742;28;20057;-77
2021/08/13 08:13:31;;;;;;;8.07;3.95;;;29.00;90.70;;;;;;4984737;28;20283;-76
2021/08/13 08:16:02;;;;;;;5.13;3.88;;;29.00;90.80;;;;;;4983288;28;20544;-78
2021/08/13 08:18:31;;;;;;;8.57;4.00;;;29.00;90.10;;;;;;4974812;28;20065;-77
2021/08/13 08:20:59;;;;;;;5.63;3.85;;;29.10;90.60;;;;;;4988872;28;20054;-77
2021/08/13 08:23:29;;;;;;;6.88;3.30;;;29.20;90.20;;;;;;4975227;28;20063;-77
2021/08/13 08:25:57;;;;;;;7.13;3.63;;;29.30;89.10;;;;;;4977909;28;20692;-77
2021/08/13 08:28:26;;;;;;;7.70;3.78;;;29.40;88.70;;;;;;4989148;28;20411;-77
2021/08/13 08:30:54;;;;;;;7.93;3.88;;;29.50;88.90;;;;;;5000781;28;20076;-77
2021/08/13 08:33:22;;;;;;;9.02;3.70;;;29.50;88.70;;;;;;4993202;28;20057;-77
2021/08/13 08:35:51;;;;;;;7.13;3.55;;;29.70;88.80;;;;;;4996715;28;20102;-78
2021/08/13 08:38:19;;;;;;;5.15;3.30;;;29.70;88.60;;;;;;5004614;28;20392;-77
2021/08/13 08:40:50;;;;;;;5.03;3.55;;;29.90;88.60;;;;;;4990984;28;20046;-77
2021/08/13 08:43:19;;;;;;;9.50;3.50;;;29.90;87.80;;;;;;4992133;28;20132;-77
2021/08/13 08:45:48;;;;;;;5.05;3.13;;;29.90;87.40;;;;;;4984680;28;20048;-77
2021/08/13 08:48:17;;;;;;;10.10;3.75;;;30.10;87.30;;;;;;4994413;28;20056;-77
2021/08/13 08:50:45;;;;;;;5.47;3.30;;;30.20;87.30;;;;;;4977507;28;20544;-76
2021/08/13 08:53:18;;;;;;;8.48;3.53;;;30.30;87.30;;;;;;4982649;28;20073;-78
2021/08/13 08:55:46;;;;;;;4.88;3.42;;;30.30;87.00;;;;;;4978415;28;20063;-78
2021/08/13 08:58:17;;;;;;;4.35;3.50;;;30.40;87.40;;;;;;4990595;28;20053;-77
2021/08/13 09:00:45;;;;;;;5.78;3.33;;;30.50;86.90;;;;;;5006781;28;20090;-77
2021/08/13 09:03:24;;;;;;;4.90;3.45;;;30.60;86.60;;;;;;5006813;28;20038;-78
2021/08/13 09:05:52;;;;;;;6.35;3.75;;;30.70;86.40;;;;;;4970810;28;20420;-76
2021/08/13 09:08:20;;;;;;;5.45;2.92;;;30.90;86.10;;;;;;5006910;28;20042;-77
2021/08/13 09:10:49;;;;;;;6.75;3.38;;;31.00;85.80;;;;;;4990808;28;20069;-77
2021/08/13 09:13:26;;;;;;;3.67;3.20;;;31.00;85.50;;;;;;5011556;28;20041;-77
2021/08/13 09:16:07;;;;;;;5.60;3.50;;;31.00;85.70;;;;;;4983702;28;20152;-75
2021/08/13 09:18:36;;;;;;;5.78;3.50;;;31.20;86.20;;;;;;4987039;28;20759;-74
2021/08/13 09:21:04;;;;;;;4.90;3.40;;;31.30;86.00;;;;;;4993874;28;20049;-74
2021/08/13 09:23:35;;;;;;;5.47;3.40;;;31.30;85.40;;;;;;4993526;28;20042;-74
2021/08/13 09:26:06;;;;;;;5.45;3.47;;;31.30;84.40;;;;;;4986810;28;20097;-77
2021/08/13 09:28:58;;;;;;;4.47;3.70;;;31.50;84.80;;;;;;4978253;28;20069;-78
2021/08/13 09:31:50;;;;;;;5.80;3.47;;;31.70;84.60;;;;;;4990784;28;20138;-74
2021/08/13 09:34:31;;;;;;;3.55;3.25;;;31.80;83.80;;;;;;4983030;28;20039;-74
2021/08/13 09:37:00;;;;;;;4.30;3.90;;;31.80;83.20;;;;;;4987169;28;20584;-74
2021/08/13 09:39:31;;;;;;;5.40;3.95;;;31.90;83.70;;;;;;4968364;28;20034;-74
2021/08/13 09:42:06;;;;;;;4.25;3.33;;;32.00;83.50;;;;;;4993909;28;20049;-76
2021/08/13 09:44:39;;;;;;;6.00;3.75;;;32.10;82.90;;;;;;4952636;28;20051;-75
2021/08/13 09:47:10;;;;;;;7.03;3.67;;;32.30;83.10;;;;;;4986818;28;20069;-74
2021/08/13 09:49:40;;;;;;;7.22;3.72;;;32.30;82.70;;;;;;4980417;28;20523;-74
2021/08/13 09:52:11;;;;;;;8.55;3.92;;;32.70;82.80;;;;;;4980814;28;20053;-74
2021/08/13 09:54:41;;;;;;;6.22;4.00;;;32.80;82.60;;;;;;4973136;28;20049;-75
2021/08/13 09:57:12;;;;;;;4.75;3.80;;;32.80;81.80;;;;;;4974340;28;20053;-74
2021/08/13 09:59:58;;;;;;;4.40;3.80;;;33.00;81.50;;;;;;4963963;28;20053;-74
2021/08/13 10:02:31;;;;;;;;;;;33.20;81.60;;;;;;4979968;28;20149;-74
2021/08/13 10:05:14;;;;;;;6.63;3.70;;;33.30;80.70;;;;;;4961782;28;20400;-74
2021/08/13 10:07:50;;;;;;;6.03;3.78;;;33.30;80.80;;;;;;4984012;28;20060;-74
2021/08/13 10:10:25;;;;;;;7.63;3.83;;;33.30;81.20;;;;;;4986357;28;20053;-75
2021/08/13 10:12:55;;;;;;;4.85;3.50;;;33.50;80.30;;;;;;4981475;28;20030;-75
2021/08/13 10:15:33;;;;;;;4.85;3.33;;;33.50;79.70;;;;;;4984941;28;20054;-74
2021/08/13 10:18:06;;;;;;;5.65;3.42;;;33.50;78.60;;;;;;4974537;28;20060;-75
2021/08/13 10:20:37;;;;;;;6.63;3.50;;;33.70;78.50;;;;;;5001948;28;20080;-75
2021/08/13 10:23:07;;;;;;;8.38;3.80;;;33.70;78.00;;;;;;4972091;28;20050;-78
2021/08/13 10:25:37;;;;;;;7.85;3.53;;;33.90;77.50;;;;;;4983316;28;20363;-77
2021/08/13 10:28:06;;;;;;;6.15;5.55;;;34.20;78.00;;;;;;4980474;28;20116;-78
2021/08/13 10:30:45;;;;;;;4.80;3.55;;;34.50;76.90;;;;;;4994677;28;20045;-77
2021/08/13 10:33:17;;;;;;;4.25;3.63;;;34.60;75.70;;;;;;4961478;28;20138;-78
2021/08/13 10:35:49;;;;;;;4.68;3.60;;;34.60;75.00;;;;;;4981923;28;20069;-76
2021/08/13 10:38:21;;;;;;;4.90;3.40;;;34.70;76.20;;;;;;4980031;28;20050;-75
2021/08/13 10:40:51;;;;;;;5.18;2.85;;;34.70;75.70;;;;;;4986477;28;20055;-77
2021/08/13 10:43:28;;;;;;;4.03;3.08;;;34.90;74.90;;;;;;4974691;28;20390;-77
2021/08/13 10:46:02;;;;;;;4.05;3.47;;;34.90;74.10;;;;;;4974370;28;20480;-76
2021/08/13 10:48:34;;;;;;;7.35;3.25;;;35.00;74.20;;;;;;4988866;28;20049;-77
2021/08/13 10:51:04;;;;;;;5.32;3.60;;;35.10;74.10;;;;;;4978340;28;20102;-77
2021/08/13 10:53:37;;;;;;;7.00;3.30;;;35.10;74.20;;;;;;4984521;28;20125;-76
2021/08/13 10:56:38;;;;;;;8.20;3.30;;;35.10;72.50;;;;;;4982006;28;20054;-73
2021/08/13 10:59:12;;;;;;;5.28;3.08;;;35.20;71.90;;;;;;4974984;28;20050;-75
2021/08/13 11:02:11;;;;;;;5.43;2.97;;;35.30;71.20;;;;;;4967256;28;20042;-74
2021/08/13 11:05:00;;;;;;;4.40;3.30;;;35.20;71.00;;;;;;4978922;28;20443;-74
2021/08/13 11:07:59;;;;;;;6.82;3.33;;;35.40;71.10;;;;;;4989349;28;20559;-75
2021/08/13 11:10:55;;;;;;;3.53;2.40;;;35.50;70.80;;;;;;4974489;28;20042;-76
2021/08/13 11:13:25;;;;;;;5.20;3.03;;;35.80;70.80;;;;;;4964854;28;20165;-75
2021/08/13 11:15:58;;;;;;;6.75;3.10;;;36.00;69.30;;;;;;5202957;23;20061;-76
2021/08/13 11:18:38;;;;;;;8.48;3.05;;;35.80;70.20;;;;;;4995139;28;20049;-77
2021/08/13 11:21:10;;;;;;;4.30;3.22;;;35.80;70.60;;;;;;4968485;28;20045;-79
2021/08/13 11:23:58;;;;;;;4.80;3.15;;;36.00;69.60;;;;;;4999226;28;20064;-76
2021/08/13 11:27:09;;;;;;;6.05;3.47;;;36.20;70.60;;;;;;5013422;28;20057;-76
2021/08/13 11:29:43;;;;;;;5.15;3.15;;;36.30;69.40;;;;;;4996073;28;20045;-77
2021/08/13 11:32:25;;;;;;;3.72;3.20;;;36.40;68.40;;;;;;5012554;28;20073;-77
2021/08/13 11:35:04;;;;;;;6.15;2.90;;;36.40;68.90;;;;;;5000829;28;20056;-77
2021/08/13 11:37:52;;;;;;;8.57;3.10;;;36.50;68.50;;;;;;5019849;28;20056;-79
2021/08/13 11:40:47;;;;;;;4.85;3.30;;;36.60;68.30;;;;;;5011817;28;20096;-78
2021/08/13 11:43:19;;;;;;;4.25;2.88;;;36.60;68.40;;;;;;5020156;28;20049;-77
2021/08/13 11:45:49;;;;;;;8.00;2.83;;;36.70;66.90;;;;;;5014944;28;20045;-78
2021/08/13 11:48:31;;;;;;;5.38;2.63;;;36.70;66.70;;;;;;5020926;28;20523;-78
2021/08/13 11:51:07;;;;;;;3.10;2.80;;;36.80;66.30;;;;;;5017105;28;20499;-79
2021/08/13 11:53:37;;;;;;;5.03;3.20;;;37.00;66.40;;;;;;5002888;28;20050;-80
2021/08/13 11:56:07;;;;;;;3.38;3.08;;;37.20;66.60;;;;;;5004498;28;20077;-78
2021/08/13 11:58:35;;;;;;;6.70;2.88;;;37.30;67.60;;;;;;5019458;28;20465;-80
2021/08/13 12:01:05;;;;;;;5.82;3.30;;;37.20;66.20;;;;;;5016219;28;20227;-77
2021/08/13 12:03:35;;;;;;;3.67;2.75;;;37.20;67.10;;;;;;5004945;28;20274;-77
2021/08/13 12:06:16;;;;;;;6.10;3.20;;;37.30;66.00;;;;;;5020464;28;20253;-79
2021/08/13 12:08:51;;;;;;;5.07;2.70;;;37.40;65.60;;;;;;5017614;28;20511;-81
2021/08/13 12:11:24;;;;;;;4.75;3.03;;;37.60;64.80;;;;;;5003788;28;20069;-81
2021/08/13 12:13:56;;;;;;;3.00;2.70;;;37.50;64.10;;;;;;5022936;28;20467;-82
2021/08/13 12:16:25;;;;;;;5.05;2.95;;;37.60;64.10;;;;;;5012031;28;20060;-82
2021/08/13 12:18:57;;;;;;;3.25;2.65;;;37.70;64.10;;;;;;5019257;28;20521;-82
2021/08/13 12:21:29;;;;;;;5.55;2.75;;;37.80;64.20;;;;;;5022985;28;20119;-80
2021/08/13 12:23:57;;;;;;;4.40;3.03;;;37.80;64.80;;;;;;5004561;28;20510;-77
2021/08/13 12:26:28;;;;;;;5.05;3.08;;;38.10;64.60;;;;;;5023007;28;20072;-79
2021/08/13 12:28:59;;;;;;;4.07;2.80;;;38.10;64.40;;;;;;5022092;28;20034;-79
2021/08/13 12:31:27;;;;;;;3.58;2.75;;;38.20;64.70;;;;;;5018407;28;20521;-79
2021/08/13 12:33:57;;;;;;;5.20;2.95;;;38.10;64.80;;;;;;5023066;28;20084;-78
2021/08/13 12:36:28;;;;;;;4.53;3.17;;;38.20;66.20;;;;;;5022050;28;20135;-77
2021/08/13 12:38:58;;;;;;;2.95;2.65;;;38.30;65.80;;;;;;5023378;28;20049;-78
2021/08/13 12:41:31;;;;;;;3.75;3.28;;;38.30;65.90;;;;;;5007526;28;20408;-77
2021/08/13 12:43:59;;;;;;;4.53;3.08;;;38.40;65.60;;;;;;5024131;28;20045;-77
2021/08/13 12:46:32;;;;;;;5.43;3.20;;;38.50;65.40;;;;;;5021674;28;20296;-77
2021/08/13 12:49:03;;;;;;;5.32;2.97;;;38.60;65.20;;;;;;5006427;28;20049;-77
2021/08/13 12:51:37;;;;;;;6.55;3.65;;;38.60;64.40;;;;;;5016895;28;20061;-77
2021/08/13 12:54:32;;;;;;;4.38;3.20;;;38.20;65.10;;;;;;5023436;28;20048;-77
2021/08/13 12:57:04;;;;;;;4.57;3.83;;;37.90;65.90;;;;;;4996209;28;20511;-78
2021/08/13 12:59:34;;;;;;;4.75;3.35;;;37.80;66.70;;;;;;5012018;28;20045;-81
2021/08/13 13:02:05;;;;;;;8.00;3.80;;;37.50;67.40;;;;;;5005222;28;20050;-81
2021/08/13 13:04:39;;;;;;;7.85;3.78;;;37.30;68.20;;;;;;5018585;28;20392;-79
2021/08/13 13:07:12;;;;;;;4.70;3.53;;;37.10;68.60;;;;;;5012743;28;20078;-81
2021/08/13 13:09:42;;;;;;;4.40;3.25;;;37.00;69.20;;;;;;5003682;28;20332;-78
2021/08/13 13:12:21;;;;;;;5.30;3.28;;;36.90;70.00;;;;;;5022426;28;20506;-79
2021/08/13 13:14:54;;;;;;;4.35;3.40;;;36.80;69.80;;;;;;5023312;28;20045;-78